Time;durP1;ratioP1;P1;durP2;ratioP2;P2;SDS_P1;SDS_P2;PMS_P1;PMS_P2;Temp;Humidity;BMP_temperature;BMP_pressure;BME280_temperature;BME280_humidity;BME280_pressure;Samples;Min_cycle;Max_cycle;Signal;HPM_P1;HPM_P2
2023/02/09 00:01:28;;;;;;;10.05;9.35;;;;;;;;;;4998167;28;20038;-59
2023/02/09 00:03:54;;;;;;;10.25;9.60;;;;;;;;;;4994062;28;20042;-48
2023/02/09 00:06:21;;;;;;;10.55;9.85;;;;;;;;;;4995292;28;20038;-48
2023/02/09 00:08:47;;;;;;;11.00;9.98;;;;;;;;;;4994147;28;20125;-59
2023/02/09 00:13:21;;;;;;;11.10;10.38;;;;;;;;;;4999989;28;20136;-59
2023/02/09 00:14:11;;;;;;;10.50;9.77;;;;;;;;;;4995811;28;20096;-48
2023/02/09 00:16:37;;;;;;;12.70;11.68;;;;;;;;;;4997477;28;20050;-59
2023/02/09 00:19:02;;;;;;;10.73;10.02;;;;;;;;;;4996901;28;20088;-60
2023/02/09 00:21:28;;;;;;;11.50;10.68;;;;;;;;;;4997955;28;20480;-58
2023/02/09 00:23:53;;;;;;;11.68;10.88;;;;;;;;;;4997641;28;20036;-59
2023/02/09 00:26:18;;;;;;;11.55;10.65;;;;;;;;;;4997300;28;20065;-50
2023/02/09 00:28:44;;;;;;;9.75;9.15;;;;;;;;;;4994714;28;20415;-59
2023/02/09 00:31:11;;;;;;;9.88;9.25;;;;;;;;;;4998037;28;20423;-46
2023/02/09 00:33:37;;;;;;;12.50;11.70;;;;;;;;;;4996502;28;20042;-49
2023/02/09 00:36:07;;;;;;;12.38;11.20;;;;;;;;;;5001798;28;20116;-59
2023/02/09 00:38:34;;;;;;;12.63;11.75;;;;;;;;;;4998594;28;20050;-59
2023/02/09 00:40:59;;;;;;;13.02;12.13;;;;;;;;;;4994879;28;20094;-60
2023/02/09 00:43:25;;;;;;;12.68;11.68;;;;;;;;;;4997979;28;20054;-59
2023/02/09 00:45:50;;;;;;;10.57;9.95;;;;;;;;;;4996754;28;20038;-59
2023/02/09 00:48:15;;;;;;;11.43;10.63;;;;;;;;;;4997168;28;20026;-58
2023/02/09 00:50:41;;;;;;;11.68;10.82;;;;;;;;;;4995503;28;20042;-59
2023/02/09 00:53:06;;;;;;;11.77;10.88;;;;;;;;;;4998306;28;20034;-58
2023/02/09 00:55:31;;;;;;;13.13;12.23;;;;;;;;;;4993448;28;20042;-59
2023/02/09 00:57:57;;;;;;;12.10;11.25;;;;;;;;;;4995426;28;20060;-58
2023/02/09 01:00:22;;;;;;;11.95;11.15;;;;;;;;;;4996125;28;20136;-58
2023/02/09 01:02:48;;;;;;;11.95;11.05;;;;;;;;;;4995669;28;20061;-58
2023/02/09 01:05:13;;;;;;;11.15;10.45;;;;;;;;;;4996910;28;20046;-58
2023/02/09 01:07:38;;;;;;;13.38;12.02;;;;;;;;;;4995774;28;20030;-58
2023/02/09 01:10:04;;;;;;;10.65;9.95;;;;;;;;;;4997118;28;20085;-58
2023/02/09 01:12:30;;;;;;;10.90;10.20;;;;;;;;;;4997926;28;20045;-48
2023/02/09 01:14:55;;;;;;;9.88;9.18;;;;;;;;;;4993829;28;20029;-48
2023/02/09 01:17:21;;;;;;;12.60;11.70;;;;;;;;;;4998346;28;20037;-50
2023/02/09 01:19:51;;;;;;;12.73;11.82;;;;;;;;;;4999172;28;20071;-47
2023/02/09 01:22:16;;;;;;;11.00;10.30;;;;;;;;;;5004331;28;20388;-46
2023/02/09 01:24:41;;;;;;;11.38;10.68;;;;;;;;;;4996950;28;20046;-51
2023/02/09 01:27:07;;;;;;;11.52;10.73;;;;;;;;;;4996690;28;20583;-48
2023/02/09 01:29:32;;;;;;;12.60;11.80;;;;;;;;;;5003740;28;20132;-59
2023/02/09 01:31:57;;;;;;;10.65;9.95;;;;;;;;;;4996892;28;20037;-59
2023/02/09 01:34:23;;;;;;;13.77;12.75;;;;;;;;;;4997811;28;20046;-58
2023/02/09 01:36:48;;;;;;;12.70;11.80;;;;;;;;;;5000440;28;20029;-58
2023/02/09 01:39:14;;;;;;;13.55;12.27;;;;;;;;;;4996946;28;20126;-58
2023/02/09 01:41:40;;;;;;;13.35;12.18;;;;;;;;;;4996271;28;20351;-60
2023/02/09 01:44:15;;;;;;;12.98;11.95;;;;;;;;;;5000847;28;20089;-58
2023/02/09 01:46:41;;;;;;;13.30;12.32;;;;;;;;;;4996280;28;20036;-48
2023/02/09 01:49:11;;;;;;;11.88;11.05;;;;;;;;;;4995621;28;20021;-49
2023/02/09 01:51:49;;;;;;;11.48;10.68;;;;;;;;;;5002703;28;20103;-48
2023/02/09 01:54:21;;;;;;;10.82;10.07;;;;;;;;;;4992248;28;20049;-48
2023/02/09 01:56:51;;;;;;;14.18;13.07;;;;;;;;;;4997863;28;20056;-50
2023/02/09 01:59:16;;;;;;;11.85;11.05;;;;;;;;;;4996326;28;20048;-52
2023/02/09 02:05:05;;;;;;;;;;;;;;;;;;4998376;28;20066;-60
2023/02/09 02:07:38;;;;;;;11.02;10.25;;;;;;;;;;4997155;28;20020;-60
2023/02/09 02:10:04;;;;;;;11.90;11.10;;;;;;;;;;4995336;28;20037;-60
2023/02/09 02:12:31;;;;;;;11.43;10.68;;;;;;;;;;4994775;28;20095;-60
2023/02/09 02:14:56;;;;;;;12.30;11.35;;;;;;;;;;4994210;28;20518;-60
2023/02/09 02:17:34;;;;;;;11.85;10.85;;;;;;;;;;4995798;28;20038;-60
2023/02/09 02:20:33;;;;;;;10.27;9.68;;;;;;;;;;4996688;28;20359;-60
2023/02/09 02:23:10;;;;;;;14.55;13.30;;;;;;;;;;4996407;28;20034;-60
2023/02/09 02:26:09;;;;;;;11.07;10.18;;;;;;;;;;4993963;28;20491;-59
2023/02/09 02:28:44;;;;;;;12.65;11.63;;;;;;;;;;4995438;28;20065;-59
2023/02/09 02:31:34;;;;;;;10.80;10.10;;;;;;;;;;4994766;28;20069;-59
2023/02/09 02:34:37;;;;;;;11.43;10.63;;;;;;;;;;5011882;28;20337;-49
2023/02/09 02:37:08;;;;;;;10.98;10.23;;;;;;;;;;4993066;28;20041;-59
2023/02/09 02:39:43;;;;;;;;;;;;;;;;;;4992879;28;20104;-48
2023/02/09 02:45:29;;;;;;;13.50;12.50;;;;;;;;;;4991974;28;20030;-49
2023/02/09 02:48:09;;;;;;;12.20;11.23;;;;;;;;;;4994417;28;20050;-59
2023/02/09 02:50:42;;;;;;;11.32;10.43;;;;;;;;;;4996103;28;20092;-59
2023/02/09 02:53:10;;;;;;;10.98;10.27;;;;;;;;;;4992622;28;20498;-59
2023/02/09 02:55:38;;;;;;;11.57;10.75;;;;;;;;;;5001261;28;20026;-51
2023/02/09 02:58:07;;;;;;;11.48;10.60;;;;;;;;;;4993861;28;20096;-49
2023/02/09 03:00:40;;;;;;;10.95;10.18;;;;;;;;;;4994476;28;20733;-51
2023/02/09 03:03:10;;;;;;;12.73;11.73;;;;;;;;;;4994110;28;20037;-50
2023/02/09 03:05:37;;;;;;;10.93;10.10;;;;;;;;;;4995691;28;20041;-48
2023/02/09 03:08:02;;;;;;;10.48;9.68;;;;;;;;;;4999733;28;20129;-59
2023/02/09 03:10:35;;;;;;;11.75;11.02;;;;;;;;;;4994260;28;20121;-59
2023/02/09 03:13:19;;;;;;;11.63;10.73;;;;;;;;;;4992701;28;20131;-59
2023/02/09 03:16:18;;;;;;;10.88;10.18;;;;;;;;;;4993522;28;20074;-48
2023/02/09 03:18:46;;;;;;;12.55;11.52;;;;;;;;;;4994074;28;20070;-48
2023/02/09 03:21:18;;;;;;;11.25;10.55;;;;;;;;;;4995705;28;20086;-60
2023/02/09 03:23:47;;;;;;;12.75;11.85;;;;;;;;;;4992512;28;20042;-60
2023/02/09 03:26:19;;;;;;;10.13;9.43;;;;;;;;;;4994728;28;20049;-60
2023/02/09 03:28:45;;;;;;;;;;;;;;;;;;4994880;28;20049;-59
2023/02/09 03:31:10;;;;;;;11.90;11.10;;;;;;;;;;4994957;28;19917;-59
2023/02/09 03:33:37;;;;;;;11.63;10.60;;;;;;;;;;5002366;28;20353;-59
2023/02/09 03:36:08;;;;;;;11.80;10.30;;;;;;;;;;4994970;28;20041;-57
2023/02/09 03:38:33;;;;;;;10.95;10.25;;;;;;;;;;4992707;28;20468;-59
2023/02/09 03:40:58;;;;;;;10.15;9.45;;;;;;;;;;4997442;28;20045;-59
2023/02/09 03:44:25;;;;;;;11.60;10.80;;;;;;;;;;4992722;28;20082;-59
2023/02/09 03:46:12;;;;;;;11.85;10.98;;;;;;;;;;4993794;28;20374;-59
2023/02/09 03:48:37;;;;;;;10.82;10.13;;;;;;;;;;4993693;28;20066;-59
2023/02/09 03:51:05;;;;;;;12.95;11.63;;;;;;;;;;4996853;28;20046;-59
2023/02/09 03:53:33;;;;;;;10.45;9.75;;;;;;;;;;4997303;28;20108;-59
2023/02/09 03:55:59;;;;;;;11.95;11.02;;;;;;;;;;4996450;28;20084;-59
2023/02/09 03:58:24;;;;;;;10.65;9.95;;;;;;;;;;4998478;28;20041;-59
2023/02/09 04:00:49;;;;;;;11.63;10.80;;;;;;;;;;4998882;28;20038;-59
2023/02/09 04:03:14;;;;;;;11.63;10.73;;;;;;;;;;4998023;28;20046;-59
2023/02/09 04:05:40;;;;;;;11.43;10.63;;;;;;;;;;4996257;28;20052;-59
2023/02/09 04:08:05;;;;;;;12.85;11.73;;;;;;;;;;4998671;28;20048;-59
2023/02/09 04:10:30;;;;;;;11.85;11.05;;;;;;;;;;4999130;28;20035;-60
2023/02/09 04:12:56;;;;;;;11.18;10.32;;;;;;;;;;4995690;28;20108;-60
2023/02/09 04:15:21;;;;;;;12.10;11.00;;;;;;;;;;4997904;28;20030;-59
2023/02/09 04:17:46;;;;;;;12.93;11.75;;;;;;;;;;4996116;28;20049;-59
2023/02/09 04:20:12;;;;;;;12.77;11.82;;;;;;;;;;4996703;28;20072;-59
2023/02/09 04:22:38;;;;;;;12.15;11.35;;;;;;;;;;4996111;28;20030;-59
2023/02/09 04:25:04;;;;;;;11.45;10.70;;;;;;;;;;5001245;28;20136;-59
2023/02/09 04:27:29;;;;;;;11.07;10.27;;;;;;;;;;4995553;28;20038;-59
2023/02/09 04:29:55;;;;;;;11.85;10.80;;;;;;;;;;4995817;28;20153;-59
2023/02/09 04:32:20;;;;;;;12.40;10.82;;;;;;;;;;4996929;28;20038;-59
2023/02/09 04:34:45;;;;;;;13.02;11.98;;;;;;;;;;4996591;28;20034;-59
2023/02/09 04:37:11;;;;;;;10.88;10.18;;;;;;;;;;4997562;28;20037;-59
2023/02/09 04:39:36;;;;;;;11.32;10.40;;;;;;;;;;4997079;28;20042;-59
2023/02/09 04:42:01;;;;;;;12.30;11.45;;;;;;;;;;4996127;28;20034;-59
2023/02/09 04:44:27;;;;;;;12.63;11.57;;;;;;;;;;4998260;28;20034;-59
2023/02/09 04:46:52;;;;;;;10.32;9.63;;;;;;;;;;4999008;28;20100;-59
2023/02/09 04:49:17;;;;;;;12.13;11.10;;;;;;;;;;4994591;28;20042;-59
2023/02/09 04:51:43;;;;;;;10.13;9.43;;;;;;;;;;5002543;28;20073;-59
2023/02/09 04:54:08;;;;;;;14.43;13.15;;;;;;;;;;4995334;28;20034;-58
2023/02/09 04:56:35;;;;;;;11.40;10.70;;;;;;;;;;4993981;28;20041;-59
2023/02/09 05:01:44;;;;;;;12.85;11.82;;;;;;;;;;4992154;28;20033;-59
2023/02/09 05:04:09;;;;;;;12.45;11.65;;;;;;;;;;4993550;28;20044;-59
2023/02/09 05:06:34;;;;;;;12.57;11.68;;;;;;;;;;4998018;28;20484;-59
2023/02/09 05:09:00;;;;;;;11.55;10.65;;;;;;;;;;4992971;28;20038;-59
2023/02/09 05:11:25;;;;;;;13.73;12.75;;;;;;;;;;4995616;28;20444;-57
2023/02/09 05:13:50;;;;;;;12.00;11.10;;;;;;;;;;4996673;28;20380;-58
2023/02/09 05:16:16;;;;;;;13.15;11.35;;;;;;;;;;4995776;28;20342;-58
2023/02/09 05:18:42;;;;;;;12.88;11.88;;;;;;;;;;4996566;28;20062;-58
2023/02/09 05:21:07;;;;;;;12.23;11.32;;;;;;;;;;4994067;28;20046;-56
2023/02/09 05:23:32;;;;;;;13.35;12.32;;;;;;;;;;4994391;28;20810;-58
2023/02/09 05:25:58;;;;;;;11.48;10.65;;;;;;;;;;4993700;28;20042;-58
2023/02/09 05:28:23;;;;;;;13.05;12.23;;;;;;;;;;4997122;28;20046;-58
2023/02/09 05:30:52;;;;;;;12.32;11.43;;;;;;;;;;4993411;28;20038;-57
2023/02/09 05:33:23;;;;;;;13.15;12.18;;;;;;;;;;4996824;28;20043;-60
2023/02/09 05:35:50;;;;;;;12.70;11.67;;;;;;;;;;4995825;28;20116;-59
2023/02/09 05:38:16;;;;;;;14.75;13.25;;;;;;;;;;5004297;28;20038;-60
2023/02/09 05:40:41;;;;;;;11.20;10.40;;;;;;;;;;4996940;28;20562;-59
2023/02/09 05:43:07;;;;;;;12.30;11.50;;;;;;;;;;4997520;28;20389;-59
2023/02/09 05:45:32;;;;;;;14.85;13.60;;;;;;;;;;5001716;28;20045;-59
2023/02/09 05:47:58;;;;;;;12.18;11.30;;;;;;;;;;4997506;28;20045;-59
2023/02/09 05:50:23;;;;;;;12.07;11.13;;;;;;;;;;4992933;28;20041;-59
2023/02/09 05:52:48;;;;;;;14.05;12.98;;;;;;;;;;4997767;28;20878;-60
2023/02/09 05:55:14;;;;;;;10.57;9.88;;;;;;;;;;4999797;28;20562;-59
2023/02/09 05:57:39;;;;;;;12.65;11.68;;;;;;;;;;4993422;28;20373;-60
2023/02/09 06:00:05;;;;;;;13.13;11.88;;;;;;;;;;4993545;28;20037;-60
2023/02/09 06:02:31;;;;;;;11.98;11.05;;;;;;;;;;4993677;28;20042;-59
2023/02/09 06:04:56;;;;;;;11.80;10.98;;;;;;;;;;4996791;28;20033;-59
2023/02/09 06:07:21;;;;;;;13.05;11.95;;;;;;;;;;4996135;28;20038;-57
2023/02/09 06:09:47;;;;;;;13.68;12.35;;;;;;;;;;4995180;28;20699;-59
2023/02/09 06:12:12;;;;;;;11.38;10.57;;;;;;;;;;4993918;28;20077;-60
2023/02/09 06:14:37;;;;;;;12.23;11.20;;;;;;;;;;4996638;28;20053;-58
2023/02/09 06:17:03;;;;;;;13.88;12.80;;;;;;;;;;5000412;28;20037;-59
2023/02/09 06:19:29;;;;;;;13.57;12.57;;;;;;;;;;4995620;28;20379;-60
2023/02/09 06:21:55;;;;;;;14.77;13.10;;;;;;;;;;4992046;28;20108;-61
2023/02/09 06:24:20;;;;;;;11.77;10.88;;;;;;;;;;4995382;28;20095;-60
2023/02/09 06:26:45;;;;;;;11.13;10.32;;;;;;;;;;4995933;28;20060;-60
2023/02/09 06:29:11;;;;;;;13.85;12.85;;;;;;;;;;4994368;28;20046;-59
2023/02/09 06:31:37;;;;;;;12.32;11.50;;;;;;;;;;4992518;28;20049;-59
2023/02/09 06:34:04;;;;;;;11.38;10.50;;;;;;;;;;4992926;28;20037;-59
2023/02/09 06:36:30;;;;;;;14.23;12.57;;;;;;;;;;4995261;28;20088;-59
2023/02/09 06:38:55;;;;;;;12.90;11.88;;;;;;;;;;4997324;28;20038;-58
2023/02/09 06:41:20;;;;;;;12.65;11.80;;;;;;;;;;4999449;28;20069;-58
2023/02/09 06:43:46;;;;;;;11.45;10.65;;;;;;;;;;5000994;28;20042;-58
2023/02/09 06:46:12;;;;;;;13.82;12.82;;;;;;;;;;4994182;28;20036;-59
2023/02/09 06:48:38;;;;;;;11.93;10.88;;;;;;;;;;4992971;28;20495;-58
2023/02/09 06:51:12;;;;;;;12.13;11.20;;;;;;;;;;4991908;28;20045;-59
2023/02/09 06:53:38;;;;;;;12.02;10.98;;;;;;;;;;4991300;28;20039;-58
2023/02/09 06:56:05;;;;;;;10.48;9.77;;;;;;;;;;4994260;28;20145;-59
2023/02/09 06:58:30;;;;;;;10.80;10.10;;;;;;;;;;4995263;28;20041;-59
2023/02/09 07:01:16;;;;;;;12.05;11.05;;;;;;;;;;4999423;28;20038;-59
2023/02/09 07:03:42;;;;;;;12.20;11.23;;;;;;;;;;4991620;28;20049;-59
2023/02/09 07:06:10;;;;;;;12.77;11.77;;;;;;;;;;4992175;28;20069;-58
2023/02/09 07:08:35;;;;;;;12.25;11.02;;;;;;;;;;4994467;28;20030;-58
2023/02/09 07:11:03;;;;;;;11.10;10.30;;;;;;;;;;4991962;28;20165;-59
2023/02/09 07:13:30;;;;;;;12.55;11.40;;;;;;;;;;4993616;28;20065;-58
2023/02/09 07:15:57;;;;;;;12.63;11.57;;;;;;;;;;4993499;28;20061;-58
2023/02/09 07:18:23;;;;;;;11.52;10.52;;;;;;;;;;4995141;28;20073;-58
2023/02/09 07:21:00;;;;;;;12.15;11.25;;;;;;;;;;4993103;28;20065;-59
2023/02/09 07:23:26;;;;;;;11.55;10.75;;;;;;;;;;4994320;28;20037;-58
2023/02/09 07:25:52;;;;;;;12.55;11.40;;;;;;;;;;4998746;28;20472;-58
2023/02/09 07:28:21;;;;;;;11.68;10.90;;;;;;;;;;4999630;28;20757;-58
2023/02/09 07:30:50;;;;;;;25.05;11.45;;;;;;;;;;5000497;28;20564;-57
2023/02/09 07:33:20;;;;;;;12.55;11.65;;;;;;;;;;4998457;28;20117;-58
2023/02/09 07:35:47;;;;;;;11.32;10.48;;;;;;;;;;4999673;28;20038;-59
2023/02/09 07:38:13;;;;;;;12.75;11.75;;;;;;;;;;5000973;28;20042;-59
2023/02/09 07:40:44;;;;;;;12.25;11.45;;;;;;;;;;4998893;28;20103;-57
2023/02/09 07:43:09;;;;;;;12.10;11.25;;;;;;;;;;4999121;28;20133;-58
2023/02/09 07:45:34;;;;;;;12.85;11.85;;;;;;;;;;4996113;28;20051;-59
2023/02/09 07:48:00;;;;;;;14.27;12.90;;;;;;;;;;4994489;28;20034;-59
2023/02/09 07:50:25;;;;;;;12.32;11.52;;;;;;;;;;4995835;28;20039;-58
2023/02/09 07:52:54;;;;;;;12.25;11.40;;;;;;;;;;4995919;28;20038;-59
2023/02/09 07:55:20;;;;;;;12.18;11.20;;;;;;;;;;4995921;28;20192;-59
2023/02/09 07:57:45;;;;;;;14.30;13.18;;;;;;;;;;4997194;28;20129;-59
2023/02/09 08:00:11;;;;;;;11.40;10.68;;;;;;;;;;4998363;28;20268;-59
2023/02/09 08:02:36;;;;;;;13.13;12.23;;;;;;;;;;4997684;28;20041;-58
2023/02/09 08:05:04;;;;;;;13.05;12.05;;;;;;;;;;4998550;28;20095;-59
2023/02/09 08:07:30;;;;;;;10.65;9.90;;;;;;;;;;5012433;28;20121;-59
2023/02/09 08:09:55;;;;;;;11.13;10.32;;;;;;;;;;4997893;28;20112;-59
2023/02/09 08:12:58;;;;;;;11.80;10.80;;;;;;;;;;4997115;28;20037;-59
2023/02/09 08:15:12;;;;;;;12.77;11.77;;;;;;;;;;4997317;28;20077;-59
2023/02/09 08:17:38;;;;;;;12.70;11.65;;;;;;;;;;4996599;28;20042;-58
2023/02/09 08:20:15;;;;;;;10.32;9.52;;;;;;;;;;4996482;28;20060;-58
2023/02/09 08:22:45;;;;;;;12.00;11.10;;;;;;;;;;4997196;28;20417;-59
2023/02/09 08:25:16;;;;;;;11.70;10.80;;;;;;;;;;4997978;28;20053;-57
2023/02/09 08:27:42;;;;;;;10.80;10.05;;;;;;;;;;4998454;28;20181;-58
2023/02/09 08:30:08;;;;;;;10.40;9.60;;;;;;;;;;4996609;28;20077;-57
2023/02/09 08:32:34;;;;;;;12.20;11.27;;;;;;;;;;4996632;28;20145;-57
2023/02/09 08:34:59;;;;;;;12.43;11.43;;;;;;;;;;4995880;28;20089;-58
2023/02/09 08:37:24;;;;;;;10.82;9.82;;;;;;;;;;4999213;28;20080;-57
2023/02/09 08:39:50;;;;;;;11.80;10.95;;;;;;;;;;4999826;28;20038;-58
2023/02/09 08:42:15;;;;;;;10.73;9.90;;;;;;;;;;4996317;28;20037;-58
2023/02/09 08:44:40;;;;;;;11.65;10.75;;;;;;;;;;4997830;28;20077;-58
2023/02/09 08:47:05;;;;;;;17.27;11.02;;;;;;;;;;4998396;28;20509;-57
2023/02/09 08:49:31;;;;;;;12.80;11.88;;;;;;;;;;4998593;28;20038;-58
2023/02/09 08:51:56;;;;;;;11.80;11.00;;;;;;;;;;4992374;28;20831;-58
2023/02/09 08:54:21;;;;;;;12.60;11.48;;;;;;;;;;4996912;28;20030;-58
2023/02/09 08:56:47;;;;;;;11.90;11.00;;;;;;;;;;4997120;28;20034;-58
2023/02/09 08:59:12;;;;;;;12.75;11.55;;;;;;;;;;4995819;28;20181;-58
2023/02/09 09:01:39;;;;;;;11.98;11.15;;;;;;;;;;5000068;28;20041;-58
2023/02/09 09:04:05;;;;;;;11.23;10.52;;;;;;;;;;4992576;28;20037;-56
2023/02/09 09:06:31;;;;;;;12.07;11.23;;;;;;;;;;4997302;28;20030;-56
2023/02/09 09:08:56;;;;;;;12.52;11.60;;;;;;;;;;4994999;28;20379;-46
2023/02/09 09:11:22;;;;;;;11.73;10.93;;;;;;;;;;4997657;28;20129;-48
2023/02/09 09:13:47;;;;;;;13.18;11.90;;;;;;;;;;4996469;28;20071;-46
2023/02/09 09:16:19;;;;;;;12.48;11.48;;;;;;;;;;4995975;28;20045;-46
2023/02/09 09:18:45;;;;;;;10.68;9.98;;;;;;;;;;4985202;28;20030;-47
2023/02/09 09:21:16;;;;;;;12.32;11.43;;;;;;;;;;4999068;28;20052;-50
2023/02/09 09:23:42;;;;;;;11.47;10.67;;;;;;;;;;4994608;28;20037;-48
2023/02/09 09:26:08;;;;;;;10.27;9.57;;;;;;;;;;4995384;28;20307;-47
2023/02/09 09:28:33;;;;;;;19.17;11.88;;;;;;;;;;4996097;28;20041;-50
2023/02/09 09:31:04;;;;;;;10.25;9.55;;;;;;;;;;4995550;28;20183;-49
2023/02/09 09:33:30;;;;;;;11.40;10.27;;;;;;;;;;4996323;28;20038;-49
2023/02/09 09:36:01;;;;;;;13.60;12.13;;;;;;;;;;5000542;28;20757;-50
2023/02/09 09:38:27;;;;;;;13.38;12.30;;;;;;;;;;4995337;28;20456;-49
2023/02/09 09:40:52;;;;;;;13.80;12.65;;;;;;;;;;4994051;28;20030;-48
2023/02/09 09:43:38;;;;;;;10.27;9.57;;;;;;;;;;4995853;28;20112;-46
2023/02/09 09:46:06;;;;;;;11.32;10.52;;;;;;;;;;4993920;28;20949;-48
2023/02/09 09:48:53;;;;;;;10.38;9.68;;;;;;;;;;4998847;28;20115;-51
2023/02/09 09:51:43;;;;;;;10.85;10.05;;;;;;;;;;4996727;28;20041;-48
2023/02/09 09:54:18;;;;;;;11.05;10.25;;;;;;;;;;4993507;28;20073;-49
2023/02/09 09:56:44;;;;;;;11.13;10.32;;;;;;;;;;4995621;28;20046;-48
2023/02/09 09:59:24;;;;;;;11.60;10.80;;;;;;;;;;4992817;28;20096;-50
2023/02/09 10:01:51;;;;;;;18.88;11.20;;;;;;;;;;4993568;28;20393;-50
2023/02/09 10:04:19;;;;;;;12.30;11.25;;;;;;;;;;4996353;28;20034;-47
2023/02/09 10:06:48;;;;;;;11.45;10.65;;;;;;;;;;4993212;28;20038;-51
2023/02/09 10:09:35;;;;;;;11.20;10.40;;;;;;;;;;4996795;28;20046;-52
2023/02/09 10:12:35;;;;;;;11.23;10.15;;;;;;;;;;4995622;28;20038;-47
2023/02/09 10:15:28;;;;;;;19.27;11.90;;;;;;;;;;5008737;28;20030;-46
2023/02/09 10:17:54;;;;;;;10.52;9.80;;;;;;;;;;5001459;28;20037;-50
2023/02/09 10:20:49;;;;;;;10.77;10.05;;;;;;;;;;4998677;28;20033;-51
2023/02/09 10:23:18;;;;;;;11.10;10.23;;;;;;;;;;4995187;28;20029;-49
2023/02/09 10:26:00;;;;;;;12.65;11.57;;;;;;;;;;4995875;28;20531;-50
2023/02/09 10:28:29;;;;;;;12.13;11.23;;;;;;;;;;4993855;28;20491;-46
2023/02/09 10:30:58;;;;;;;10.85;10.15;;;;;;;;;;4995455;28;20112;-48
2023/02/09 10:33:25;;;;;;;13.07;12.07;;;;;;;;;;4995552;28;20065;-52
2023/02/09 10:35:53;;;;;;;13.10;12.15;;;;;;;;;;4992474;28;20021;-52
2023/02/09 10:38:21;;;;;;;10.77;10.07;;;;;;;;;;4999297;28;20121;-49
2023/02/09 10:40:47;;;;;;;12.07;11.20;;;;;;;;;;4998035;28;20188;-49
2023/02/09 10:43:24;;;;;;;12.10;11.25;;;;;;;;;;4996618;28;20826;-49
2023/02/09 10:45:56;;;;;;;12.45;11.60;;;;;;;;;;4992703;28;20068;-53
2023/02/09 10:48:23;;;;;;;13.85;12.73;;;;;;;;;;4994300;28;20034;-50
2023/02/09 10:51:27;;;;;;;13.05;12.10;;;;;;;;;;5000209;28;20790;-50
2023/02/09 10:53:58;;;;;;;14.02;13.13;;;;;;;;;;4991982;28;20068;-47
2023/02/09 10:56:26;;;;;;;13.38;12.52;;;;;;;;;;4995087;28;20141;-60
2023/02/09 10:59:01;;;;;;;14.23;13.23;;;;;;;;;;4999139;28;20042;-58
2023/02/09 11:01:42;;;;;;;15.55;14.45;;;;;;;;;;4997358;28;20038;-60
2023/02/09 11:04:19;;;;;;;12.73;11.83;;;;;;;;;;4996837;28;20037;-59
2023/02/09 11:06:57;;;;;;;13.88;12.90;;;;;;;;;;4995404;28;20049;-59
2023/02/09 11:09:28;;;;;;;14.70;13.50;;;;;;;;;;4999863;28;20458;-59
2023/02/09 11:11:54;;;;;;;;;;;;;;;;;;5004066;28;20064;-59
2023/02/09 11:14:19;;;;;;;14.30;13.00;;;;;;;;;;4997209;28;19917;-59
2023/02/09 11:17:03;;;;;;;13.52;12.57;;;;;;;;;;5000049;28;20045;-59
2023/02/09 11:19:47;;;;;;;12.48;11.68;;;;;;;;;;4998672;28;20037;-59
2023/02/09 11:22:25;;;;;;;13.73;12.82;;;;;;;;;;4997238;28;20052;-59
2023/02/09 11:25:17;;;;;;;14.18;12.98;;;;;;;;;;5005788;28;20060;-59
2023/02/09 11:28:03;;;;;;;14.70;13.70;;;;;;;;;;5001222;28;20057;-59
2023/02/09 11:30:53;;;;;;;14.23;13.13;;;;;;;;;;4998496;28;20934;-59
2023/02/09 11:33:40;;;;;;;13.93;13.02;;;;;;;;;;4997992;28;20076;-59
2023/02/09 11:36:27;;;;;;;14.20;13.07;;;;;;;;;;4997904;28;20033;-60
2023/02/09 11:38:59;;;;;;;14.90;13.85;;;;;;;;;;4994406;28;20031;-59
2023/02/09 11:44:41;;;;;;;12.75;11.95;;;;;;;;;;4998769;28;20042;-60
2023/02/09 11:47:11;;;;;;;14.15;13.15;;;;;;;;;;4995967;28;20045;-59
2023/02/09 11:49:44;;;;;;;13.02;12.23;;;;;;;;;;4999262;28;20030;-59
2023/02/09 11:52:15;;;;;;;12.07;11.27;;;;;;;;;;4999738;28;20029;-59
2023/02/09 11:54:46;;;;;;;14.55;13.55;;;;;;;;;;4997433;28;20026;-59
2023/02/09 11:57:20;;;;;;;15.93;14.55;;;;;;;;;;4998732;28;20042;-58
2023/02/09 11:59:55;;;;;;;13.57;12.52;;;;;;;;;;5000168;28;20116;-59
2023/02/09 12:02:45;;;;;;;15.38;13.82;;;;;;;;;;4999636;28;20494;-59
2023/02/09 12:05:15;;;;;;;13.68;12.88;;;;;;;;;;4994013;28;20941;-58
2023/02/09 12:07:59;;;;;;;14.38;13.10;;;;;;;;;;4999489;28;20088;-59
2023/02/09 12:10:34;;;;;;;15.00;13.70;;;;;;;;;;4995710;28;20468;-59
2023/02/09 12:13:38;;;;;;;14.63;13.65;;;;;;;;;;5004781;28;20419;-59
2023/02/09 12:16:12;;;;;;;14.93;13.82;;;;;;;;;;4998678;28;20044;-57
2023/02/09 12:18:40;;;;;;;15.57;14.32;;;;;;;;;;4997479;28;20034;-59
2023/02/09 12:21:06;;;;;;;14.90;13.95;;;;;;;;;;4996996;28;20026;-57
2023/02/09 12:23:37;;;;;;;14.82;13.80;;;;;;;;;;4995446;28;20039;-58
2023/02/09 12:26:15;;;;;;;14.60;13.52;;;;;;;;;;4998169;28;20031;-59
2023/02/09 12:28:42;;;;;;;13.50;12.70;;;;;;;;;;4997450;28;20053;-59
2023/02/09 12:31:15;;;;;;;16.48;14.80;;;;;;;;;;4995805;28;20034;-59
2023/02/09 12:33:43;;;;;;;15.25;14.18;;;;;;;;;;4993510;28;20072;-59
2023/02/09 12:36:08;;;;;;;14.70;13.70;;;;;;;;;;4997793;28;20045;-59
2023/02/09 12:38:49;;;;;;;14.75;13.75;;;;;;;;;;4998057;28;20041;-60
2023/02/09 12:41:20;;;;;;;13.70;12.77;;;;;;;;;;4996171;28;20088;-49
2023/02/09 12:43:46;;;;;;;14.80;13.70;;;;;;;;;;4997097;28;20771;-59
2023/02/09 12:46:22;;;;;;;14.50;13.50;;;;;;;;;;4994667;28;20033;-60
2023/02/09 12:48:50;;;;;;;15.35;14.35;;;;;;;;;;4994296;28;20030;-58
2023/02/09 12:51:49;;;;;;;17.58;16.48;;;;;;;;;;4996212;28;20033;-58
2023/02/09 12:54:30;;;;;;;17.80;16.60;;;;;;;;;;4995498;28;20030;-58
2023/02/09 12:57:15;;;;;;;16.55;15.45;;;;;;;;;;4997952;28;20053;-51
2023/02/09 12:59:50;;;;;;;16.80;15.73;;;;;;;;;;4997985;28;20241;-48
2023/02/09 13:02:47;;;;;;;16.38;15.27;;;;;;;;;;4996019;28;20041;-51
2023/02/09 13:05:32;;;;;;;15.25;14.32;;;;;;;;;;4996067;28;20038;-52
2023/02/09 13:08:05;;;;;;;16.73;15.63;;;;;;;;;;4996144;28;20047;-52
2023/02/09 13:10:40;;;;;;;17.27;16.08;;;;;;;;;;4997476;28;20037;-54
2023/02/09 13:13:16;;;;;;;16.65;15.57;;;;;;;;;;4996940;28;20069;-51
2023/02/09 13:15:59;;;;;;;17.23;16.00;;;;;;;;;;4994757;28;20037;-59
2023/02/09 13:18:43;;;;;;;16.90;15.57;;;;;;;;;;4996535;28;20080;-59
2023/02/09 13:21:50;;;;;;;18.63;17.35;;;;;;;;;;4996397;28;20095;-60
2023/02/09 13:24:31;;;;;;;98.25;93.15;;;;;;;;;;4994364;28;20026;-59
2023/02/09 13:26:57;;;;;;;14.75;13.85;;;;;;;;;;4997757;28;20029;-59
2023/02/09 13:29:30;;;;;;;188.38;178.90;;;;;;;;;;4996387;28;20034;-48
2023/02/09 13:32:14;;;;;;;16.55;15.45;;;;;;;;;;4996371;28;20641;-48
2023/02/09 13:35:03;;;;;;;15.52;14.43;;;;;;;;;;4995566;28;20030;-58
2023/02/09 13:37:51;;;;;;;16.33;15.30;;;;;;;;;;4995229;28;20034;-59
2023/02/09 13:40:25;;;;;;;14.68;13.73;;;;;;;;;;4998773;28;20048;-59
2023/02/09 13:43:15;;;;;;;17.17;15.98;;;;;;;;;;4997369;28;20121;-59
2023/02/09 13:45:52;;;;;;;15.80;14.45;;;;;;;;;;4994091;28;20065;-47
2023/02/09 13:48:22;;;;;;;17.58;16.45;;;;;;;;;;4996142;28;20236;-52
2023/02/09 13:50:49;;;;;;;15.98;14.80;;;;;;;;;;5011325;28;20607;-59
2023/02/09 13:53:17;;;;;;;17.88;16.60;;;;;;;;;;4995461;28;20045;-50
2023/02/09 13:55:45;;;;;;;15.90;14.90;;;;;;;;;;4997135;28;20041;-50
2023/02/09 13:58:20;;;;;;;16.30;15.23;;;;;;;;;;4996946;28;20034;-51
2023/02/09 14:01:03;;;;;;;17.00;15.77;;;;;;;;;;4995614;28;20037;-49
2023/02/09 14:03:29;;;;;;;15.30;14.25;;;;;;;;;;4994376;28;20519;-48
2023/02/09 14:06:03;;;;;;;16.73;15.18;;;;;;;;;;5000036;28;20041;-48
2023/02/09 14:08:31;;;;;;;16.40;15.30;;;;;;;;;;4992786;28;20521;-60
2023/02/09 14:11:07;;;;;;;15.75;14.75;;;;;;;;;;4996470;28;20080;-48
2023/02/09 14:13:39;;;;;;;16.73;15.63;;;;;;;;;;4993834;28;20030;-48
2023/02/09 14:16:05;;;;;;;16.35;15.35;;;;;;;;;;4996761;28;20023;-49
2023/02/09 14:18:42;;;;;;;16.60;15.38;;;;;;;;;;4997219;28;20539;-60
2023/02/09 14:21:12;;;;;;;16.17;14.65;;;;;;;;;;4996659;28;20057;-60
2023/02/09 14:23:38;;;;;;;21.38;17.08;;;;;;;;;;4995335;28;20042;-59
2023/02/09 14:26:12;;;;;;;18.48;17.13;;;;;;;;;;4997146;28;20121;-60
2023/02/09 14:28:39;;;;;;;18.83;17.38;;;;;;;;;;4995804;28;20030;-59
2023/02/09 14:31:06;;;;;;;16.50;15.50;;;;;;;;;;4995414;28;20030;-60
2023/02/09 14:33:35;;;;;;;16.85;15.68;;;;;;;;;;4995534;28;20433;-62
2023/02/09 14:36:01;;;;;;;16.92;15.88;;;;;;;;;;4996811;28;20018;-59
2023/02/09 14:38:36;;;;;;;17.17;15.98;;;;;;;;;;4997057;28;20648;-60
2023/02/09 14:41:31;;;;;;;17.23;16.00;;;;;;;;;;4995523;28;20042;-59
2023/02/09 14:44:01;;;;;;;17.55;16.45;;;;;;;;;;4995716;28;20136;-59
2023/02/09 14:46:27;;;;;;;15.63;14.63;;;;;;;;;;4995728;28;20030;-60
2023/02/09 14:48:56;;;;;;;14.40;13.48;;;;;;;;;;4995366;28;20443;-59
2023/02/09 14:51:22;;;;;;;15.20;14.20;;;;;;;;;;4990646;28;20045;-60